createdAt,value
2022-12-16T00:00:15.970Z,-3.04
2022-12-16T00:02:42.821Z,-2.85
2022-12-16T00:05:09.587Z,-2.72
2022-12-16T00:07:38.352Z,-2.62
2022-12-16T00:10:08.723Z,-2.58
2022-12-16T00:12:35.214Z,-2.51
2022-12-16T00:15:01.752Z,-2.34
2022-12-16T00:17:28.412Z,-2.28
2022-12-16T00:19:54.882Z,-2.22
2022-12-16T00:22:22.708Z,-2.16
2022-12-16T00:24:49.481Z,-2.09
2022-12-16T00:27:17.125Z,-2.04
2022-12-16T00:29:45.950Z,-2.02
2022-12-16T00:32:12.605Z,-1.94
2022-12-16T00:34:39.154Z,-1.95
2022-12-16T00:37:05.664Z,-1.85
2022-12-16T00:39:32.606Z,-1.80
2022-12-16T00:41:59.137Z,-1.78
2022-12-16T00:44:25.660Z,-1.79
2022-12-16T00:46:52.262Z,-1.69
2022-12-16T00:49:18.826Z,-1.66
2022-12-16T00:51:45.456Z,-1.64
2022-12-16T00:54:11.965Z,-1.63
2022-12-16T00:56:38.539Z,-1.60
2022-12-16T00:59:05.081Z,-1.60
2022-12-16T01:01:31.699Z,-1.59
2022-12-16T01:03:58.448Z,-1.53
2022-12-16T01:06:25.086Z,-1.55
2022-12-16T01:08:51.679Z,-1.56
2022-12-16T01:11:20.672Z,-1.60
2022-12-16T01:13:51.931Z,-1.55
2022-12-16T01:16:21.476Z,-1.58
2022-12-16T01:18:48.127Z,-1.57
2022-12-16T01:21:15.635Z,-1.57
2022-12-16T01:23:42.585Z,-1.55
2022-12-16T01:26:15.043Z,-1.56
2022-12-16T01:28:41.693Z,-1.55
2022-12-16T01:31:08.227Z,-1.51
2022-12-16T01:33:37.358Z,-1.52
2022-12-16T01:36:06.746Z,-1.42
2022-12-16T01:38:33.684Z,-1.45
2022-12-16T01:41:03.024Z,-1.39
2022-12-16T01:43:33.547Z,-1.39
2022-12-16T01:46:09.745Z,-1.47
2022-12-16T01:48:39.497Z,-1.37
2022-12-16T01:51:23.421Z,-1.36
2022-12-16T01:53:56.616Z,-1.35
2022-12-16T01:56:27.193Z,-1.35
2022-12-16T01:58:55.502Z,-1.31
2022-12-16T02:01:22.863Z,-1.29
2022-12-16T02:03:54.152Z,-1.32
2022-12-16T02:06:20.895Z,-1.27
2022-12-16T02:08:54.975Z,-1.30
2022-12-16T02:11:29.616Z,-1.22
2022-12-16T02:14:14.309Z,-1.21
2022-12-16T02:16:45.634Z,-1.19
2022-12-16T02:19:49.407Z,-1.17
2022-12-16T02:22:21.918Z,-1.13
2022-12-16T02:25:03.300Z,-1.10
2022-12-16T02:27:55.015Z,-1.04
2022-12-16T02:30:53.885Z,-1.02
2022-12-16T02:33:44.520Z,-0.97
2022-12-16T02:36:30.419Z,-0.95
2022-12-16T02:39:02.305Z,-0.91
2022-12-16T02:42:07.221Z,-0.89
2022-12-16T02:44:44.694Z,-0.88
2022-12-16T02:47:11.231Z,-0.87
2022-12-16T02:49:52.495Z,-0.89
2022-12-16T02:52:24.824Z,-0.83
2022-12-16T02:55:04.827Z,-0.76
2022-12-16T02:58:23.044Z,-0.73
2022-12-16T03:01:10.974Z,-0.71
2022-12-16T03:03:43.471Z,-0.69
2022-12-16T03:06:12.638Z,-0.66
2022-12-16T03:08:43.610Z,-0.69
2022-12-16T03:11:10.234Z,-0.64
2022-12-16T03:13:46.294Z,-0.59
2022-12-16T03:16:16.146Z,-0.58
2022-12-16T03:18:47.400Z,-0.58
2022-12-16T03:21:14.707Z,-0.53
2022-12-16T03:23:59.019Z,-0.53
2022-12-16T03:26:34.590Z,-0.49
2022-12-16T03:29:10.221Z,-0.48
2022-12-16T03:31:48.768Z,-0.44
2022-12-16T03:34:35.454Z,-0.42
2022-12-16T03:37:09.144Z,-0.49
2022-12-16T03:39:41.966Z,-0.45
2022-12-16T03:42:09.934Z,-0.43
2022-12-16T03:44:36.954Z,-0.37
2022-12-16T03:47:05.746Z,-0.32
2022-12-16T03:49:32.376Z,-0.37
2022-12-16T03:51:59.006Z,-0.28
2022-12-16T03:54:28.107Z,-0.27
2022-12-16T03:56:54.688Z,-0.25
2022-12-16T03:59:23.607Z,-0.27
2022-12-16T04:01:50.360Z,-0.26
2022-12-16T04:04:17.944Z,-0.23
2022-12-16T04:06:44.549Z,-0.27
2022-12-16T04:09:11.158Z,-0.23
2022-12-16T04:11:56.420Z,-0.24
2022-12-16T04:14:41.766Z,-0.21
2022-12-16T04:17:31.297Z,-0.29
2022-12-16T04:20:16.793Z,-0.29
2022-12-16T04:23:02.691Z,-0.21
2022-12-16T04:25:35.877Z,-0.20
2022-12-16T04:28:04.743Z,-0.17
2022-12-16T04:30:38.562Z,-0.20
2022-12-16T04:33:30.335Z,-0.12
2022-12-16T04:36:15.486Z,-0.09
2022-12-16T04:39:03.065Z,-0.07
2022-12-16T04:41:48.571Z,-0.04
2022-12-16T04:44:34.206Z,-0.10
2022-12-16T04:47:19.225Z,-0.02
2022-12-16T04:50:04.537Z,-0.02
2022-12-16T04:52:51.932Z,0.03
2022-12-16T04:55:37.147Z,-0.01
2022-12-16T04:58:23.413Z,0.05
2022-12-16T05:01:08.760Z,0.09
2022-12-16T05:03:54.736Z,0.11
2022-12-16T05:06:40.447Z,0.08
2022-12-16T05:09:27.771Z,0.03
2022-12-16T05:12:13.004Z,0.13
2022-12-16T05:14:58.442Z,0.14
2022-12-16T05:17:43.868Z,0.11
2022-12-16T05:20:30.022Z,0.11
2022-12-16T05:23:15.821Z,0.12
2022-12-16T05:26:01.509Z,0.12
2022-12-16T05:28:46.803Z,0.14
2022-12-16T05:31:42.363Z,0.13
2022-12-16T05:34:28.507Z,0.14
2022-12-16T05:37:13.778Z,0.14
2022-12-16T05:40:01.404Z,0.06
2022-12-16T05:42:46.381Z,0.08
2022-12-16T05:45:31.821Z,0.13
2022-12-16T05:48:17.119Z,0.11
2022-12-16T05:51:05.315Z,0.11
2022-12-16T05:53:50.771Z,0.10
2022-12-16T05:56:46.164Z,0.09
2022-12-16T05:59:30.978Z,0.11
2022-12-16T06:02:16.019Z,0.04
2022-12-16T06:05:03.916Z,0.12
2022-12-16T06:07:51.256Z,0.04
2022-12-16T06:10:36.548Z,0.09
2022-12-16T06:13:34.802Z,0.06
2022-12-16T06:16:22.634Z,0.02
2022-12-16T06:19:07.761Z,-0.07
2022-12-16T06:21:52.760Z,-0.14
2022-12-16T06:24:38.296Z,-0.25
2022-12-16T06:27:23.599Z,-0.32
2022-12-16T06:30:09.377Z,-0.42
2022-12-16T06:32:54.634Z,-0.50
2022-12-16T06:35:42.019Z,-0.57
2022-12-16T06:38:27.252Z,-0.66
2022-12-16T06:41:12.078Z,-0.73
2022-12-16T06:43:57.090Z,-0.81
2022-12-16T06:46:41.882Z,-0.86
2022-12-16T06:49:29.545Z,-0.93
2022-12-16T06:52:16.399Z,-1.04
2022-12-16T06:55:04.301Z,-1.12
2022-12-16T06:57:49.431Z,-1.12
2022-12-16T07:00:34.633Z,-1.16
2022-12-16T07:03:19.791Z,-1.23
2022-12-16T07:06:10.969Z,-1.27
2022-12-16T07:08:56.202Z,-1.33
2022-12-16T07:11:41.065Z,-1.38
2022-12-16T07:14:28.499Z,-1.37
2022-12-16T07:17:17.076Z,-1.46
2022-12-16T07:20:02.904Z,-1.44
2022-12-16T07:22:51.146Z,-1.51
2022-12-16T07:25:39.354Z,-1.57
2022-12-16T07:28:24.501Z,-1.61
2022-12-16T07:31:09.344Z,-1.69
2022-12-16T07:33:54.605Z,-1.70
2022-12-16T07:36:39.708Z,-1.73
2022-12-16T07:39:24.948Z,-1.76
2022-12-16T07:42:09.979Z,-1.79
2022-12-16T07:44:55.629Z,-1.82
2022-12-16T07:47:40.944Z,-1.85
2022-12-16T07:50:26.353Z,-1.93
2022-12-16T07:53:19.032Z,-1.91
2022-12-16T07:56:04.857Z,-1.93
2022-12-16T07:58:50.511Z,-1.96
2022-12-16T08:01:35.969Z,-1.99
2022-12-16T08:04:21.384Z,-1.99
2022-12-16T08:07:06.476Z,-2.03
2022-12-16T08:09:51.278Z,-2.07
2022-12-16T08:12:36.469Z,-2.10
2022-12-16T08:15:21.718Z,-2.05
2022-12-16T08:18:09.106Z,-2.03
2022-12-16T08:20:55.393Z,-2.02
2022-12-16T08:23:42.910Z,-2.03
2022-12-16T08:26:28.364Z,-2.00
2022-12-16T08:29:42.568Z,-2.05
2022-12-16T08:32:18.803Z,-2.01
2022-12-16T08:35:04.187Z,-1.98
2022-12-16T08:37:49.276Z,-1.97
2022-12-16T08:40:37.213Z,-1.98
2022-12-16T08:43:22.849Z,-1.94
2022-12-16T08:46:12.284Z,-1.93
2022-12-16T08:48:57.590Z,-1.89
2022-12-16T08:51:42.459Z,-1.87
2022-12-16T08:54:28.817Z,-1.85
2022-12-16T08:57:14.182Z,-1.86
2022-12-16T08:59:59.169Z,-1.80
2022-12-16T09:02:44.702Z,-1.78
2022-12-16T09:05:32.529Z,-1.76
2022-12-16T09:08:19.168Z,-1.71
2022-12-16T09:11:04.759Z,-1.70
2022-12-16T09:13:49.708Z,-1.66
2022-12-16T09:16:37.145Z,-1.62
2022-12-16T09:19:22.498Z,-1.51
2022-12-16T09:22:07.457Z,-1.48
2022-12-16T09:24:53.888Z,-1.43
2022-12-16T09:27:41.062Z,-1.36
2022-12-16T09:30:26.891Z,-1.27
2022-12-16T09:33:14.240Z,-1.19
2022-12-16T09:35:59.332Z,-1.07
2022-12-16T09:38:46.849Z,-0.86
2022-12-16T09:42:03.874Z,-0.51
2022-12-16T09:44:54.326Z,-0.36
2022-12-16T09:47:58.147Z,-0.21
2022-12-16T09:50:45.971Z,-0.03
2022-12-16T09:53:38.004Z,0.16
2022-12-16T09:56:32.125Z,0.48
2022-12-16T09:59:20.548Z,0.76
2022-12-16T10:02:06.378Z,0.85
2022-12-16T10:04:54.571Z,0.95
2022-12-16T10:07:47.576Z,0.99
2022-12-16T10:10:40.211Z,1.07
2022-12-16T10:13:45.613Z,1.12
2022-12-16T10:16:47.637Z,1.07
2022-12-16T10:19:51.137Z,1.14
2022-12-16T10:22:48.324Z,1.15
2022-12-16T10:25:40.793Z,1.22
2022-12-16T10:28:35.175Z,1.26
2022-12-16T10:31:32.120Z,1.27
2022-12-16T10:34:17.701Z,1.42
2022-12-16T10:37:11.035Z,1.41
2022-12-16T10:40:03.617Z,1.55
2022-12-16T10:42:58.197Z,1.71
2022-12-16T10:45:54.623Z,1.99
2022-12-16T10:48:56.283Z,2.11
2022-12-16T10:51:47.469Z,2.23
2022-12-16T10:54:43.315Z,2.18
2022-12-16T10:57:39.110Z,1.96
2022-12-16T11:00:38.968Z,2.05
2022-12-16T11:03:42.372Z,1.94
2022-12-16T11:06:29.004Z,1.99
2022-12-16T11:09:34.131Z,2.08
2022-12-16T11:12:45.558Z,2.29
2022-12-16T11:15:42.152Z,2.35
2022-12-16T11:18:40.492Z,2.38
2022-12-16T11:21:38.238Z,2.42
2022-12-16T11:24:26.268Z,2.34
2022-12-16T11:27:16.673Z,2.49
2022-12-16T11:30:16.606Z,2.67
2022-12-16T11:33:07.027Z,2.70
2022-12-16T11:35:59.946Z,2.66
2022-12-16T11:39:08.257Z,2.63
2022-12-16T11:42:02.939Z,2.69
2022-12-16T11:44:54.996Z,2.68
2022-12-16T11:47:59.229Z,2.82
2022-12-16T11:50:47.712Z,2.86
2022-12-16T11:53:48.446Z,3.08
2022-12-16T11:56:39.057Z,3.09
2022-12-16T11:59:46.663Z,3.50
2022-12-16T12:02:39.760Z,3.71
2022-12-16T12:05:25.566Z,3.76
2022-12-16T12:08:36.976Z,3.87
2022-12-16T12:11:37.953Z,3.79
2022-12-16T12:14:33.933Z,3.79
2022-12-16T12:17:29.410Z,3.78
2022-12-16T12:20:45.537Z,3.80
2022-12-16T12:23:40.947Z,3.83
2022-12-16T12:26:37.627Z,3.81
2022-12-16T12:29:52.525Z,3.77
2022-12-16T12:33:25.463Z,3.88
2022-12-16T12:36:38.652Z,3.93
2022-12-16T12:39:23.646Z,3.94
2022-12-16T12:42:27.147Z,3.96
2022-12-16T12:45:40.438Z,3.99
2022-12-16T12:48:45.396Z,3.99
2022-12-16T12:51:30.662Z,3.99
2022-12-16T12:54:59.169Z,3.90
2022-12-16T12:57:47.643Z,3.80
2022-12-16T13:00:32.884Z,3.86
2022-12-16T13:03:32.356Z,3.88
2022-12-16T13:06:18.584Z,3.90
2022-12-16T13:09:09.609Z,3.78
2022-12-16T13:11:57.462Z,3.78
2022-12-16T13:14:51.759Z,3.80
2022-12-16T13:17:42.311Z,3.84
2022-12-16T13:20:50.566Z,3.82
2022-12-16T13:23:52.114Z,3.84
2022-12-16T13:26:39.443Z,3.83
2022-12-16T13:29:47.415Z,3.78
2022-12-16T13:32:36.972Z,3.72
2022-12-16T13:35:25.638Z,3.67
2022-12-16T13:38:22.928Z,3.57
2022-12-16T13:41:16.146Z,3.65
2022-12-16T13:44:13.974Z,3.66
2022-12-16T13:47:01.137Z,3.63
2022-12-16T13:49:55.682Z,3.58
2022-12-16T13:52:56.368Z,3.47
2022-12-16T13:55:47.358Z,3.46
2022-12-16T13:58:53.204Z,3.34
2022-12-16T14:01:46.156Z,3.38
2022-12-16T14:04:38.976Z,3.32
2022-12-16T14:07:24.944Z,3.33
2022-12-16T14:10:09.890Z,3.31
2022-12-16T14:13:08.829Z,3.22
2022-12-16T14:16:12.816Z,3.22
2022-12-16T14:19:14.267Z,3.13
2022-12-16T14:22:27.548Z,3.09
2022-12-16T14:25:12.607Z,3.13
2022-12-16T14:27:58.612Z,3.08
2022-12-16T14:30:44.540Z,3.10
2022-12-16T14:33:49.097Z,3.01
2022-12-16T14:36:46.418Z,3.02
2022-12-16T14:39:40.097Z,2.94
2022-12-16T14:42:41.430Z,3.05
2022-12-16T14:45:38.940Z,3.05
2022-12-16T14:48:46.037Z,3.05
2022-12-16T14:51:57.063Z,3.03
2022-12-16T14:55:01.770Z,3.02
2022-12-16T14:57:49.750Z,3.00
2022-12-16T15:00:40.597Z,2.87
2022-12-16T15:03:36.195Z,2.99
2022-12-16T15:06:24.640Z,2.96
2022-12-16T15:09:14.933Z,2.88
2022-12-16T15:12:02.235Z,2.87
2022-12-16T15:14:51.759Z,2.88
2022-12-16T15:17:39.943Z,2.90
2022-12-16T15:20:35.233Z,2.78
2022-12-16T15:23:20.295Z,2.84
2022-12-16T15:26:14.495Z,2.80
2022-12-16T15:29:02.788Z,2.78
2022-12-16T15:31:53.327Z,2.66
2022-12-16T15:34:38.391Z,2.73
2022-12-16T15:37:53.396Z,2.69
2022-12-16T15:40:52.437Z,2.65
2022-12-16T15:43:45.062Z,2.63
2022-12-16T15:46:56.359Z,2.60
2022-12-16T15:50:04.104Z,2.52
2022-12-16T15:52:52.396Z,2.54
2022-12-16T15:56:04.699Z,2.53
2022-12-16T15:58:59.440Z,2.43
2022-12-16T16:01:46.593Z,2.43
2022-12-16T16:04:38.076Z,2.46
2022-12-16T16:07:32.345Z,2.41
2022-12-16T16:10:35.599Z,2.32
2022-12-16T16:13:20.769Z,2.32
2022-12-16T16:16:07.919Z,2.29
2022-12-16T16:18:53.434Z,2.27
2022-12-16T16:21:38.549Z,2.23
2022-12-16T16:24:24.083Z,2.12
2022-12-16T16:27:11.962Z,2.16
2022-12-16T16:29:57.241Z,2.18
2022-12-16T16:32:42.307Z,2.17
2022-12-16T16:35:27.437Z,2.17
2022-12-16T16:38:16.755Z,2.08
2022-12-16T16:41:03.831Z,2.13
2022-12-16T16:43:54.056Z,2.10
2022-12-16T16:46:39.029Z,2.10
2022-12-16T16:49:31.837Z,2.03
2022-12-16T16:52:19.624Z,2.06
2022-12-16T16:55:04.943Z,2.05
2022-12-16T16:57:53.009Z,2.00
2022-12-16T17:00:37.875Z,1.97
2022-12-16T17:03:23.272Z,1.98
2022-12-16T17:06:11.121Z,1.98
2022-12-16T17:08:56.096Z,1.96
2022-12-16T17:11:41.958Z,1.94
2022-12-16T17:14:36.739Z,1.82
2022-12-16T17:17:22.940Z,1.87
2022-12-16T17:20:08.540Z,1.79
2022-12-16T17:22:53.964Z,1.76
2022-12-16T17:25:42.569Z,1.80
2022-12-16T17:28:29.422Z,1.83
2022-12-16T17:31:14.924Z,1.87
2022-12-16T17:33:59.930Z,1.90
2022-12-16T17:36:45.221Z,1.85
2022-12-16T17:39:30.388Z,1.89
2022-12-16T17:42:16.200Z,1.90
2022-12-16T17:45:01.321Z,1.91
2022-12-16T17:47:46.229Z,1.85
2022-12-16T17:50:33.799Z,1.90
2022-12-16T17:53:21.222Z,1.88
2022-12-16T17:56:07.505Z,1.88
2022-12-16T17:58:57.079Z,1.88
2022-12-16T18:01:43.804Z,1.86
2022-12-16T18:04:28.853Z,1.82
2022-12-16T18:07:16.687Z,1.78
2022-12-16T18:10:02.408Z,1.74
2022-12-16T18:12:48.208Z,1.68
2022-12-16T18:15:33.374Z,1.66
2022-12-16T18:18:18.871Z,1.65
2022-12-16T18:21:04.139Z,1.64
2022-12-16T18:23:51.481Z,1.61
2022-12-16T18:26:36.700Z,1.64
2022-12-16T18:29:24.503Z,1.66
2022-12-16T18:32:12.085Z,1.72
2022-12-16T18:34:59.797Z,1.69
2022-12-16T18:37:44.911Z,1.75
2022-12-16T18:40:32.813Z,1.77
2022-12-16T18:43:20.964Z,1.76
2022-12-16T18:46:17.902Z,1.77
2022-12-16T18:49:03.001Z,1.73
2022-12-16T18:51:48.514Z,1.79
2022-12-16T18:54:33.450Z,1.79
2022-12-16T18:57:18.565Z,1.62
2022-12-16T19:00:03.981Z,1.93
2022-12-16T19:02:49.104Z,2.30
2022-12-16T19:05:34.465Z,1.99
2022-12-16T19:08:19.748Z,1.92
2022-12-16T19:11:15.497Z,1.88
2022-12-16T19:14:00.737Z,1.84
2022-12-16T19:16:45.537Z,1.79
2022-12-16T19:19:30.903Z,1.70
2022-12-16T19:22:18.675Z,1.76
2022-12-16T19:25:03.676Z,1.70
2022-12-16T19:27:48.902Z,1.68
2022-12-16T19:30:34.010Z,1.60
2022-12-16T19:33:18.958Z,1.61
2022-12-16T19:36:06.707Z,1.59
2022-12-16T19:38:52.039Z,1.50
2022-12-16T19:41:40.103Z,1.57
2022-12-16T19:44:25.283Z,1.44
2022-12-16T19:47:10.453Z,1.48
2022-12-16T19:49:56.173Z,1.51
2022-12-16T19:52:41.651Z,1.50
2022-12-16T19:55:27.036Z,1.37
2022-12-16T19:58:11.997Z,1.41
2022-12-16T20:00:57.477Z,1.26
2022-12-16T20:03:42.861Z,1.58
2022-12-16T20:06:28.300Z,1.44
2022-12-16T20:09:14.645Z,1.38
2022-12-16T20:12:01.032Z,1.47
2022-12-16T20:14:46.560Z,1.43
2022-12-16T20:17:36.723Z,1.37
2022-12-16T20:20:21.929Z,1.36
2022-12-16T20:23:09.695Z,1.31
2022-12-16T20:29:02.490Z,1.31
2022-12-16T20:31:50.703Z,1.20
2022-12-16T20:34:39.245Z,1.27
2022-12-16T20:37:24.565Z,1.23
2022-12-16T20:40:11.834Z,1.20
2022-12-16T20:42:57.049Z,1.29
2022-12-16T20:45:42.160Z,1.36
2022-12-16T20:48:32.374Z,1.55
2022-12-16T20:51:26.259Z,1.45
2022-12-16T20:54:11.862Z,1.79
2022-12-16T20:57:12.829Z,1.61
2022-12-16T21:00:01.072Z,1.57
2022-12-16T21:02:46.333Z,1.52
2022-12-16T21:05:31.601Z,1.53
2022-12-16T21:08:16.630Z,1.47
2022-12-16T21:11:03.385Z,1.47
2022-12-16T21:13:49.374Z,1.46
2022-12-16T21:16:34.906Z,1.76
2022-12-16T21:19:25.499Z,1.61
2022-12-16T21:22:13.204Z,1.51
2022-12-16T21:24:58.203Z,1.48
2022-12-16T21:27:43.328Z,1.41
2022-12-16T21:30:29.021Z,1.35
2022-12-16T21:33:14.450Z,1.29
2022-12-16T21:35:59.694Z,1.25
2022-12-16T21:38:44.469Z,1.23
2022-12-16T21:41:32.005Z,1.17
2022-12-16T21:44:17.120Z,1.06
2022-12-16T21:47:02.118Z,0.98
2022-12-16T21:49:47.393Z,1.01
2022-12-16T21:52:32.260Z,0.99
2022-12-16T21:55:17.654Z,1.00
2022-12-16T21:58:02.509Z,1.00
2022-12-16T22:00:49.025Z,0.95
2022-12-16T22:03:35.733Z,0.84
2022-12-16T22:06:21.282Z,0.86
2022-12-16T22:09:06.395Z,0.86
2022-12-16T22:11:51.751Z,0.81
2022-12-16T22:14:36.958Z,0.82
2022-12-16T22:17:24.849Z,0.89
2022-12-16T22:20:10.028Z,0.91
2022-12-16T22:22:55.291Z,0.91
2022-12-16T22:25:41.051Z,0.95
2022-12-16T22:28:25.932Z,0.90
2022-12-16T22:31:16.144Z,0.95
2022-12-16T22:34:01.846Z,0.96
2022-12-16T22:36:47.336Z,0.97
2022-12-16T22:39:32.839Z,0.94
2022-12-16T22:42:17.944Z,0.98
2022-12-16T22:45:02.907Z,0.96
2022-12-16T22:47:49.716Z,0.90
2022-12-16T22:50:35.199Z,0.98
2022-12-16T22:53:21.746Z,1.00
2022-12-16T22:56:14.531Z,0.97
2022-12-16T22:58:59.792Z,0.96
2022-12-16T23:01:44.903Z,1.01
2022-12-16T23:04:30.049Z,1.03
2022-12-16T23:07:14.999Z,1.01
2022-12-16T23:10:00.229Z,0.93
2022-12-16T23:12:45.380Z,0.98
2022-12-16T23:15:31.458Z,0.97
2022-12-16T23:18:18.372Z,0.99
2022-12-16T23:21:09.797Z,1.00
2022-12-16T23:23:57.548Z,1.00
2022-12-16T23:26:43.178Z,0.93
2022-12-16T23:29:31.169Z,0.96
2022-12-16T23:32:16.145Z,0.97
2022-12-16T23:35:01.269Z,0.91
2022-12-16T23:37:46.532Z,0.98
2022-12-16T23:40:34.226Z,1.00
2022-12-16T23:43:19.442Z,0.93
2022-12-16T23:46:04.624Z,1.02
2022-12-16T23:48:49.735Z,1.04
2022-12-16T23:51:37.182Z,1.06
2022-12-16T23:54:22.669Z,1.04
2022-12-16T23:57:07.924Z,1.02
2022-12-16T23:59:54.025Z,1.07
